Time;durP1;ratioP1;P1;durP2;ratioP2;P2;SDS_P1;SDS_P2;PMS_P1;PMS_P2;Temp;Humidity;BMP_temperature;BMP_pressure;BME280_temperature;BME280_humidity;BME280_pressure;Samples;Min_cycle;Max_cycle;Signal;HPM_P1;HPM_P2
2022/08/23 00:03:21;;;;;;;21.02;12.13;;;;;;;;;;8357172;28;20060;-87
2022/08/23 00:07:23;;;;;;;19.33;12.02;;;;;;;;;;8357527;28;20107;-87
2022/08/23 00:11:29;;;;;;;17.23;12.32;;;;;;;;;;8357525;28;20053;-88
2022/08/23 00:15:32;;;;;;;17.45;11.57;;;;;;;;;;8357485;28;20052;-87
2022/08/23 00:19:37;;;;;;;15.73;11.13;;;;;;;;;;8357719;28;20045;-87
2022/08/23 00:23:39;;;;;;;20.00;11.63;;;;;;;;;;8356770;28;20106;-87
2022/08/23 00:27:42;;;;;;;18.98;12.30;;;;;;;;;;8357321;28;20556;-87
2022/08/23 00:31:44;;;;;;;19.98;12.82;;;;;;;;;;8357228;28;20048;-87
2022/08/23 00:35:48;;;;;;;23.35;13.68;;;;;;;;;;8357201;28;20053;-87
2022/08/23 00:39:51;;;;;;;22.80;13.48;;;;;;;;;;8356922;28;20091;-87
2022/08/23 00:48:13;;;;;;;18.77;13.07;;;;;;;;;;8312653;28;20600;-87
2022/08/23 00:52:23;;;;;;;20.15;13.63;;;;;;;;;;8357107;28;20435;-87
2022/08/23 00:56:27;;;;;;;20.30;13.63;;;;;;;;;;8359660;28;20052;-87
2022/08/23 01:00:31;;;;;;;23.23;14.80;;;;;;;;;;8334301;28;20127;-87
2022/08/23 01:04:39;;;;;;;20.38;12.63;;;;;;;;;;8332641;28;20051;-87
2022/08/23 01:08:47;;;;;;;18.33;13.02;;;;;;;;;;8332564;28;20401;-88
2022/08/23 01:12:56;;;;;;;19.95;13.70;;;;;;;;;;8332972;28;20069;-87
2022/08/23 01:17:04;;;;;;;18.80;13.38;;;;;;;;;;8333866;28;20095;-87
2022/08/23 01:21:13;;;;;;;17.92;13.52;;;;;;;;;;8334011;28;20056;-87
2022/08/23 01:25:21;;;;;;;20.13;13.57;;;;;;;;;;8336581;28;20448;-87
2022/08/23 01:29:23;;;;;;;23.30;14.27;;;;;;;;;;8333773;28;20052;-87
2022/08/23 01:33:26;;;;;;;21.55;13.70;;;;;;;;;;8333455;28;20041;-87
2022/08/23 01:37:28;;;;;;;21.15;14.30;;;;;;;;;;8333554;28;20406;-88
2022/08/23 01:41:32;;;;;;;26.70;14.32;;;;;;;;;;8336381;28;20041;-87
2022/08/23 01:45:36;;;;;;;24.00;12.77;;;;;;;;;;8333362;28;20057;-87
2022/08/23 01:49:38;;;;;;;19.60;13.13;;;;;;;;;;8332929;28;20100;-87
2022/08/23 01:53:41;;;;;;;18.05;12.68;;;;;;;;;;8333022;28;20056;-87
2022/08/23 01:57:46;;;;;;;20.35;13.77;;;;;;;;;;8337497;28;20057;-87
2022/08/23 02:01:49;;;;;;;19.83;14.07;;;;;;;;;;8349689;28;20403;-87
2022/08/23 02:05:51;;;;;;;21.33;13.63;;;;;;;;;;8358599;28;20504;-87
2022/08/23 02:09:55;;;;;;;19.60;13.48;;;;;;;;;;8360710;28;20033;-87
2022/08/23 02:14:02;;;;;;;23.55;13.52;;;;;;;;;;8362420;28;20575;-87
2022/08/23 02:18:05;;;;;;;18.67;13.55;;;;;;;;;;8344941;28;20041;-86
2022/08/23 02:22:09;;;;;;;20.80;13.35;;;;;;;;;;8350878;28;20532;-87
2022/08/23 02:26:11;;;;;;;24.15;14.10;;;;;;;;;;8354178;28;20048;-87
2022/08/23 02:30:15;;;;;;;19.60;13.60;;;;;;;;;;8357895;28;20095;-87
2022/08/23 02:34:18;;;;;;;17.33;12.32;;;;;;;;;;8343147;28;20406;-87
2022/08/23 02:38:21;;;;;;;23.05;12.80;;;;;;;;;;8353566;28;20041;-88
2022/08/23 02:42:23;;;;;;;20.33;14.65;;;;;;;;;;8358668;28;20052;-87
2022/08/23 02:46:27;;;;;;;20.77;14.05;;;;;;;;;;8359603;28;20107;-87
2022/08/23 02:50:30;;;;;;;24.17;14.88;;;;;;;;;;8366990;28;20446;-86
2022/08/23 02:54:33;;;;;;;23.60;14.57;;;;;;;;;;8385212;28;20040;-87
2022/08/23 02:58:35;;;;;;;28.42;15.63;;;;;;;;;;8385814;28;20121;-87
2022/08/23 03:02:39;;;;;;;20.88;15.18;;;;;;;;;;8395328;28;20029;-87
2022/08/23 03:06:42;;;;;;;21.98;15.57;;;;;;;;;;8379427;28;20048;-87
2022/08/23 03:10:46;;;;;;;20.15;14.93;;;;;;;;;;8340050;28;20048;-87
2022/08/23 03:14:50;;;;;;;23.98;15.63;;;;;;;;;;8333634;28;20041;-87
2022/08/23 03:18:55;;;;;;;25.95;15.32;;;;;;;;;;8333632;28;20047;-88
2022/08/23 03:22:57;;;;;;;25.02;15.98;;;;;;;;;;8345400;28;20053;-87
2022/08/23 03:27:00;;;;;;;24.08;15.73;;;;;;;;;;8336427;28;20051;-87
2022/08/23 03:31:03;;;;;;;23.08;14.82;;;;;;;;;;8343531;28;20496;-87
2022/08/23 03:35:08;;;;;;;23.23;14.27;;;;;;;;;;8342864;28;20071;-87
2022/08/23 03:39:11;;;;;;;22.60;14.75;;;;;;;;;;8355940;28;20494;-86
2022/08/23 03:43:14;;;;;;;17.88;13.05;;;;;;;;;;8356154;28;20387;-87
2022/08/23 03:47:16;;;;;;;21.83;14.05;;;;;;;;;;8360984;28;20386;-87
2022/08/23 03:51:21;;;;;;;23.92;14.60;;;;;;;;;;8348612;28;20419;-87
2022/08/23 03:55:24;;;;;;;22.23;15.00;;;;;;;;;;8339581;28;20042;-87
2022/08/23 03:59:27;;;;;;;20.52;14.00;;;;;;;;;;8353186;28;20061;-87
2022/08/23 04:03:29;;;;;;;21.95;15.10;;;;;;;;;;8338606;28;20095;-87
2022/08/23 04:07:34;;;;;;;21.30;13.32;;;;;;;;;;8346655;28;20041;-88
2022/08/23 04:11:36;;;;;;;23.70;12.95;;;;;;;;;;8349762;28;20115;-88
2022/08/23 04:15:39;;;;;;;21.30;13.35;;;;;;;;;;8330375;28;20129;-87
2022/08/23 04:19:42;;;;;;;18.67;12.55;;;;;;;;;;8350413;28;20037;-87
2022/08/23 04:23:46;;;;;;;16.98;12.23;;;;;;;;;;8351189;28;20413;-87
2022/08/23 04:27:49;;;;;;;16.55;10.68;;;;;;;;;;8354221;28;20423;-87
2022/08/23 04:31:51;;;;;;;13.73;10.48;;;;;;;;;;8354959;28;20046;-87
2022/08/23 04:35:54;;;;;;;18.17;11.00;;;;;;;;;;8355557;28;20048;-87
2022/08/23 04:44:18;;;;;;;15.10;9.35;;;;;;;;;;8347870;28;20041;-87
2022/08/23 04:48:22;;;;;;;16.92;10.70;;;;;;;;;;8361739;28;20051;-87
2022/08/23 04:52:24;;;;;;;14.73;10.38;;;;;;;;;;8354287;28;20128;-87
2022/08/23 04:56:28;;;;;;;15.95;9.52;;;;;;;;;;8356477;28;20072;-87
2022/08/23 05:00:30;;;;;;;15.32;10.18;;;;;;;;;;8357886;28;20033;-87
2022/08/23 05:04:33;;;;;;;16.63;9.93;;;;;;;;;;8351271;28;20119;-87
2022/08/23 05:08:36;;;;;;;20.13;11.50;;;;;;;;;;8361754;28;20403;-87
2022/08/23 05:12:40;;;;;;;19.83;11.30;;;;;;;;;;8349455;28;20460;-88
2022/08/23 05:16:43;;;;;;;16.15;10.27;;;;;;;;;;8354889;28;20060;-88
2022/08/23 05:20:45;;;;;;;15.95;12.45;;;;;;;;;;8339703;28;20045;-88
2022/08/23 05:24:48;;;;;;;22.45;12.13;;;;;;;;;;8359884;28;20094;-87
2022/08/23 05:28:52;;;;;;;18.75;11.65;;;;;;;;;;8348746;28;20055;-87
2022/08/23 05:32:54;;;;;;;22.35;13.25;;;;;;;;;;8330538;28;20044;-88
2022/08/23 05:36:57;;;;;;;23.90;12.75;;;;;;;;;;8360269;28;20045;-87
2022/08/23 05:41:00;;;;;;;20.08;12.82;;;;;;;;;;8361432;28;20499;-87
2022/08/23 05:45:06;;;;;;;20.10;12.55;;;;;;;;;;8364778;28;20460;-87
2022/08/23 05:49:09;;;;;;;17.67;12.60;;;;;;;;;;8353055;28;20051;-88
2022/08/23 05:53:11;;;;;;;20.48;12.55;;;;;;;;;;8335500;28;20386;-87
2022/08/23 05:57:14;;;;;;;18.38;12.98;;;;;;;;;;8361627;28;20045;-87
2022/08/23 06:01:21;;;;;;;18.42;12.10;;;;;;;;;;8345474;28;20504;-87
2022/08/23 06:05:23;;;;;;;17.60;11.60;;;;;;;;;;8344320;28;20045;-87
2022/08/23 06:09:26;;;;;;;18.02;12.25;;;;;;;;;;8353678;28;20044;-87
2022/08/23 06:13:30;;;;;;;18.02;11.52;;;;;;;;;;8358564;28;20053;-87
2022/08/23 06:17:34;;;;;;;21.85;12.68;;;;;;;;;;8358791;28;20408;-87
2022/08/23 06:21:39;;;;;;;21.30;13.30;;;;;;;;;;8363069;28;20519;-87
2022/08/23 06:25:41;;;;;;;22.38;13.55;;;;;;;;;;8336836;28;20124;-87
2022/08/23 06:29:44;;;;;;;20.42;14.95;;;;;;;;;;8349047;28;20100;-88
2022/08/23 06:33:49;;;;;;;22.73;15.27;;;;;;;;;;8346662;28;20051;-87
2022/08/23 06:37:51;;;;;;;23.83;14.98;;;;;;;;;;8357183;28;20099;-88
2022/08/23 06:42:00;;;;;;;21.27;14.85;;;;;;;;;;8361982;28;20045;-88
2022/08/23 06:46:10;;;;;;;21.02;15.93;;;;;;;;;;8345756;28;20485;-88
2022/08/23 06:50:14;;;;;;;22.35;14.43;;;;;;;;;;8347469;28;20045;-88
2022/08/23 06:54:20;;;;;;;25.38;13.68;;;;;;;;;;8353696;28;20045;-89
2022/08/23 06:58:22;;;;;;;26.10;14.60;;;;;;;;;;8353254;28;20103;-88
2022/08/23 07:02:25;;;;;;;19.83;13.80;;;;;;;;;;8350328;28;20124;-87
2022/08/23 07:06:30;;;;;;;20.33;12.80;;;;;;;;;;8326207;28;20052;-88
2022/08/23 07:10:33;;;;;;;19.75;12.32;;;;;;;;;;8326614;28;20065;-88
2022/08/23 07:14:38;;;;;;;17.27;11.95;;;;;;;;;;8326429;28;20045;-88
2022/08/23 07:18:40;;;;;;;19.67;11.60;;;;;;;;;;8325791;28;20057;-88
2022/08/23 07:22:44;;;;;;;19.60;12.82;;;;;;;;;;8326173;28;20067;-88
2022/08/23 07:26:48;;;;;;;20.65;11.75;;;;;;;;;;8330894;28;20056;-87
2022/08/23 07:30:51;;;;;;;22.52;12.10;;;;;;;;;;8325430;28;20045;-87
2022/08/23 07:34:53;;;;;;;21.35;11.10;;;;;;;;;;8328749;28;20078;-88
2022/08/23 07:38:58;;;;;;;22.55;11.35;;;;;;;;;;8339324;28;20053;-88
2022/08/23 07:43:01;;;;;;;14.93;11.43;;;;;;;;;;8332117;28;20417;-88
2022/08/23 07:47:04;;;;;;;17.52;10.05;;;;;;;;;;8325202;28;20053;-87
2022/08/23 07:51:10;;;;;;;15.23;10.07;;;;;;;;;;8338767;28;20124;-89
2022/08/23 07:55:15;;;;;;;19.75;11.23;;;;;;;;;;8345840;28;20053;-88
2022/08/23 07:59:17;;;;;;;21.98;11.10;;;;;;;;;;8359776;28;20053;-88
2022/08/23 08:03:20;;;;;;;22.17;13.68;;;;;;;;;;8361965;28;20052;-88
2022/08/23 08:07:23;;;;;;;18.38;10.55;;;;;;;;;;8362054;28;20124;-89
2022/08/23 08:11:30;;;;;;;15.95;9.07;;;;;;;;;;8361680;28;20033;-88
2022/08/23 08:15:32;;;;;;;15.63;7.78;;;;;;;;;;8355991;28;20045;-88
2022/08/23 08:19:35;;;;;;;13.43;8.02;;;;;;;;;;8361748;28;20100;-88
2022/08/23 08:23:38;;;;;;;14.32;7.68;;;;;;;;;;8361702;28;20045;-87
2022/08/23 08:27:43;;;;;;;13.27;7.65;;;;;;;;;;8361568;28;20045;-88
2022/08/23 08:31:47;;;;;;;13.82;8.43;;;;;;;;;;8361264;28;20049;-88
2022/08/23 08:35:50;;;;;;;13.75;8.75;;;;;;;;;;8361628;28;20052;-89
2022/08/23 08:39:53;;;;;;;19.30;9.13;;;;;;;;;;8345920;28;20051;-88
2022/08/23 08:44:10;;;;;;;21.55;6.82;;;;;;;;;;8352715;28;20049;-88
2022/08/23 08:48:16;;;;;;;16.80;6.95;;;;;;;;;;8354007;28;20045;-88
2022/08/23 08:52:24;;;;;;;10.85;5.85;;;;;;;;;;8356530;28;20075;-88
2022/08/23 08:56:31;;;;;;;12.23;5.90;;;;;;;;;;8356410;28;20587;-88
2022/08/23 09:00:39;;;;;;;13.50;6.85;;;;;;;;;;8355991;28;20126;-88
2022/08/23 09:04:41;;;;;;;13.27;4.85;;;;;;;;;;8356600;28;20045;-88
2022/08/23 09:08:57;;;;;;;12.35;5.93;;;;;;;;;;8356221;28;20053;-87
2022/08/23 09:13:20;;;;;;;10.32;5.90;;;;;;;;;;8356000;28;20421;-87
2022/08/23 09:17:30;;;;;;;14.02;6.03;;;;;;;;;;8356699;28;20045;-88
2022/08/23 09:21:43;;;;;;;14.38;6.80;;;;;;;;;;8362070;28;20136;-87
2022/08/23 09:25:52;;;;;;;14.93;9.25;;;;;;;;;;8362527;28;20048;-88
2022/08/23 09:29:58;;;;;;;15.77;7.10;;;;;;;;;;8345100;28;20059;-88
2022/08/23 09:34:02;;;;;;;13.35;6.38;;;;;;;;;;8362013;28;20440;-88
2022/08/23 09:38:19;;;;;;;15.23;6.47;;;;;;;;;;8361406;28;20067;-88
2022/08/23 09:42:32;;;;;;;17.10;6.32;;;;;;;;;;8362101;28;20053;-87
2022/08/23 09:46:37;;;;;;;10.85;5.95;;;;;;;;;;8361175;28;20052;-88
2022/08/23 09:50:53;;;;;;;15.25;5.93;;;;;;;;;;8361166;28;20048;-87
2022/08/23 09:54:59;;;;;;;15.25;6.05;;;;;;;;;;8355518;28;20091;-88
2022/08/23 09:59:22;;;;;;;13.43;6.07;;;;;;;;;;8353478;28;20079;-89
2022/08/23 10:03:30;;;;;;;13.57;5.65;;;;;;;;;;8359173;28;20460;-88
2022/08/23 10:07:40;;;;;;;14.93;6.32;;;;;;;;;;8360913;28;20390;-87
2022/08/23 10:11:45;;;;;;;12.07;6.37;;;;;;;;;;8360773;28;20080;-87
2022/08/23 10:15:56;;;;;;;20.13;6.65;;;;;;;;;;8360714;28;20365;-89
2022/08/23 10:20:08;;;;;;;18.10;9.65;;;;;;;;;;8357880;28;20056;-87
2022/08/23 10:24:22;;;;;;;15.25;6.32;;;;;;;;;;8360388;28;20045;-87
2022/08/23 10:33:07;;;;;;;13.77;5.82;;;;;;;;;;8360030;28;20061;-87
2022/08/23 10:37:37;;;;;;;10.82;6.18;;;;;;;;;;8360130;28;20096;-87
2022/08/23 10:41:56;;;;;;;15.13;5.60;;;;;;;;;;8359689;28;20049;-87
2022/08/23 10:46:01;;;;;;;11.10;4.90;;;;;;;;;;8359846;28;20045;-89
2022/08/23 10:50:07;;;;;;;17.77;5.85;;;;;;;;;;8359490;28;20438;-87
2022/08/23 10:54:17;;;;;;;14.40;5.80;;;;;;;;;;8359974;28;20121;-86
2022/08/23 10:58:25;;;;;;;11.20;4.93;;;;;;;;;;8343585;28;20573;-87
2022/08/23 11:02:35;;;;;;;11.35;5.30;;;;;;;;;;8339686;28;20046;-87
2022/08/23 11:06:49;;;;;;;13.27;5.13;;;;;;;;;;8339956;28;20049;-87
2022/08/23 11:10:52;;;;;;;12.88;4.53;;;;;;;;;;8327097;28;20053;-86
2022/08/23 11:15:21;;;;;;;11.23;4.97;;;;;;;;;;8326860;28;20084;-86
2022/08/23 11:19:51;;;;;;;13.18;4.97;;;;;;;;;;8326393;28;20107;-87
2022/08/23 11:24:15;;;;;;;13.63;5.15;;;;;;;;;;8325967;28;20405;-86
2022/08/23 11:28:40;;;;;;;12.43;5.50;;;;;;;;;;8326034;28;20051;-87
2022/08/23 11:32:45;;;;;;;18.08;5.57;;;;;;;;;;8320630;28;20061;-88
2022/08/23 11:37:22;;;;;;;12.88;5.15;;;;;;;;;;8326074;28;20095;-87
2022/08/23 11:53:18;;;;;;;14.13;4.60;;;;;;;;;;8252047;28;20883;-87
2022/08/23 11:57:34;;;;;;;16.88;5.20;;;;;;;;;;8335867;28;20114;-87
2022/08/23 12:01:39;;;;;;;14.65;5.50;;;;;;;;;;8355393;28;20619;-89
2022/08/23 12:06:34;;;;;;;15.20;5.38;;;;;;;;;;8357271;28;20052;-88
2022/08/23 12:11:00;;;;;;;25.20;5.93;;;;;;;;;;8356679;28;20203;-87
2022/08/23 12:15:06;;;;;;;14.27;5.07;;;;;;;;;;8357097;28;20061;-87
2022/08/23 12:19:26;;;;;;;14.73;5.32;;;;;;;;;;8357979;28;20421;-87
2022/08/23 12:23:30;;;;;;;20.50;5.53;;;;;;;;;;8357118;28;20056;-87
2022/08/23 12:27:38;;;;;;;15.43;6.15;;;;;;;;;;8356967;28;20044;-87
2022/08/23 12:31:53;;;;;;;17.23;6.07;;;;;;;;;;8356920;28;20045;-87
2022/08/23 12:36:02;;;;;;;10.02;6.00;;;;;;;;;;8351888;28;20132;-88
2022/08/23 12:40:11;;;;;;;19.10;7.03;;;;;;;;;;8357181;28;20396;-88
2022/08/23 12:44:18;;;;;;;20.48;8.15;;;;;;;;;;8356381;28;20052;-89
2022/08/23 12:48:24;;;;;;;23.80;7.95;;;;;;;;;;8356966;28;20760;-91
2022/08/23 12:52:30;;;;;;;15.18;7.93;;;;;;;;;;8362099;28;20041;-89
2022/08/23 12:56:34;;;;;;;16.65;6.57;;;;;;;;;;8362821;28;20095;-88
2022/08/23 13:00:42;;;;;;;21.02;7.25;;;;;;;;;;8362721;28;20049;-89
2022/08/23 13:04:45;;;;;;;13.60;6.57;;;;;;;;;;8362188;28;20052;-88
2022/08/23 13:08:52;;;;;;;14.27;6.60;;;;;;;;;;8362647;28;20045;-88
2022/08/23 13:12:55;;;;;;;18.27;6.78;;;;;;;;;;8362321;28;20401;-88
2022/08/23 13:29:55;;;;;;;15.10;6.47;;;;;;;;;;8459709;27;20502;-91
2022/08/23 13:33:58;;;;;;;21.20;6.57;;;;;;;;;;8445835;28;20047;-91
2022/08/23 13:38:10;;;;;;;13.93;6.80;;;;;;;;;;8426877;28;20048;-91
2022/08/23 13:42:14;;;;;;;13.77;6.30;;;;;;;;;;8426948;28;20437;-91
2022/08/23 13:46:21;;;;;;;14.45;6.85;;;;;;;;;;8424683;28;20905;-91
2022/08/23 13:50:27;;;;;;;17.08;6.85;;;;;;;;;;8424459;28;20072;-91
2022/08/23 13:54:32;;;;;;;19.67;7.43;;;;;;;;;;8429013;28;20032;-90
2022/08/23 13:58:36;;;;;;;14.00;6.53;;;;;;;;;;8428316;28;20059;-91
2022/08/23 14:02:41;;;;;;;19.20;7.00;;;;;;;;;;8428346;28;20044;-90
2022/08/23 14:06:44;;;;;;;16.90;7.47;;;;;;;;;;8420735;28;20063;-91
2022/08/23 14:10:47;;;;;;;18.63;7.63;;;;;;;;;;8414882;28;20044;-90
2022/08/23 14:14:51;;;;;;;16.27;7.25;;;;;;;;;;8433165;28;20048;-91
2022/08/23 14:18:55;;;;;;;18.55;7.50;;;;;;;;;;8442398;28;20040;-91
2022/08/23 14:22:59;;;;;;;18.25;8.18;;;;;;;;;;8423549;28;20479;-90
2022/08/23 14:39:49;;;;;;;16.30;7.10;;;;;;;;;;8450663;27;20417;-87
2022/08/23 14:43:53;;;;;;;17.63;7.30;;;;;;;;;;8420644;28;20427;-88
2022/08/23 14:47:55;;;;;;;18.75;5.72;;;;;;;;;;8419538;28;20476;-89
2022/08/23 14:51:58;;;;;;;14.25;6.38;;;;;;;;;;8412279;28;20419;-88
2022/08/23 14:56:04;;;;;;;15.10;6.50;;;;;;;;;;8418318;28;20036;-87
2022/08/23 15:00:13;;;;;;;12.63;6.07;;;;;;;;;;8416957;28;20048;-90
2022/08/23 15:04:19;;;;;;;14.43;6.55;;;;;;;;;;8418403;28;20492;-87
2022/08/23 15:08:22;;;;;;;15.93;6.15;;;;;;;;;;8410839;28;20713;-88
2022/08/23 15:12:26;;;;;;;14.48;6.05;;;;;;;;;;8415969;28;20123;-88
2022/08/23 15:16:30;;;;;;;13.13;5.65;;;;;;;;;;8417997;28;20119;-88
2022/08/23 15:20:36;;;;;;;15.57;5.65;;;;;;;;;;8411335;28;20487;-87
2022/08/23 15:24:39;;;;;;;12.27;5.43;;;;;;;;;;8417979;28;20048;-89
2022/08/23 15:28:44;;;;;;;21.52;6.93;;;;;;;;;;8408845;28;20052;-87
2022/08/23 15:32:48;;;;;;;21.40;5.78;;;;;;;;;;8414731;28;20127;-88
2022/08/23 15:36:51;;;;;;;21.25;6.85;;;;;;;;;;8416255;28;20189;-88
2022/08/23 15:40:55;;;;;;;15.63;6.40;;;;;;;;;;8383710;28;20052;-88
2022/08/23 15:45:01;;;;;;;12.68;5.65;;;;;;;;;;8395241;28;20044;-89
2022/08/23 15:49:13;;;;;;;17.92;5.47;;;;;;;;;;8393369;28;20055;-88
2022/08/23 15:53:20;;;;;;;17.83;5.95;;;;;;;;;;8388362;28;20044;-87
2022/08/23 15:57:27;;;;;;;17.17;7.05;;;;;;;;;;8394093;28;20049;-87
2022/08/23 16:01:34;;;;;;;14.27;5.68;;;;;;;;;;8394365;28;20278;-88
2022/08/23 16:05:38;;;;;;;16.85;5.97;;;;;;;;;;8394295;28;20117;-88
2022/08/23 16:09:41;;;;;;;16.08;5.03;;;;;;;;;;8393555;28;20056;-88
2022/08/23 16:13:47;;;;;;;15.13;6.40;;;;;;;;;;8393700;28;20768;-88
2022/08/23 16:17:51;;;;;;;22.23;6.80;;;;;;;;;;8393868;28;20502;-87
2022/08/23 16:21:54;;;;;;;16.15;7.38;;;;;;;;;;8380919;28;20053;-87
2022/08/23 16:25:57;;;;;;;18.15;7.60;;;;;;;;;;8393929;28;20047;-87
2022/08/23 16:29:59;;;;;;;18.05;7.78;;;;;;;;;;8392283;28;20052;-87
2022/08/23 16:34:04;;;;;;;22.00;8.85;;;;;;;;;;8383288;28;20055;-88
2022/08/23 16:38:07;;;;;;;20.42;8.13;;;;;;;;;;8385240;28;20420;-89
2022/08/23 16:42:09;;;;;;;22.75;8.35;;;;;;;;;;8393322;28;20044;-87
2022/08/23 16:46:14;;;;;;;14.70;8.20;;;;;;;;;;8393123;28;20041;-88
2022/08/23 16:50:18;;;;;;;22.17;8.55;;;;;;;;;;8388980;28;20052;-88
2022/08/23 16:54:21;;;;;;;17.35;8.73;;;;;;;;;;8391964;28;20128;-87
2022/08/23 16:58:24;;;;;;;20.23;9.75;;;;;;;;;;8392075;28;20599;-91
2022/08/23 17:02:30;;;;;;;21.90;9.95;;;;;;;;;;8390933;28;20067;-88
2022/08/23 17:06:34;;;;;;;20.45;10.68;;;;;;;;;;8388203;28;20485;-88
2022/08/23 17:10:37;;;;;;;17.02;10.70;;;;;;;;;;8389147;28;20052;-91
2022/08/23 17:14:40;;;;;;;20.67;10.25;;;;;;;;;;8391786;28;20048;-89
2022/08/23 17:18:46;;;;;;;19.50;11.43;;;;;;;;;;8392176;28;20052;-87
2022/08/23 17:22:54;;;;;;;23.40;10.30;;;;;;;;;;8390904;28;20521;-87
2022/08/23 17:26:57;;;;;;;20.05;10.80;;;;;;;;;;8392310;28;20056;-87
2022/08/23 17:30:59;;;;;;;22.02;11.02;;;;;;;;;;8392560;28;20056;-88
2022/08/23 17:35:02;;;;;;;21.08;11.32;;;;;;;;;;8391991;28;20037;-88
2022/08/23 17:39:10;;;;;;;16.63;10.05;;;;;;;;;;8382265;28;20511;-88
2022/08/23 17:43:14;;;;;;;20.17;10.73;;;;;;;;;;8391372;28;20051;-90
2022/08/23 17:47:18;;;;;;;20.60;10.75;;;;;;;;;;8388226;28;20052;-90
2022/08/23 17:51:21;;;;;;;17.45;11.70;;;;;;;;;;8391817;28;20178;-88
2022/08/23 17:55:25;;;;;;;20.30;13.25;;;;;;;;;;8379189;28;20043;-87
2022/08/23 17:59:28;;;;;;;22.85;13.18;;;;;;;;;;8375105;28;20084;-89
2022/08/23 18:03:34;;;;;;;20.73;12.43;;;;;;;;;;8366571;28;20102;-87
2022/08/23 18:07:38;;;;;;;22.25;12.70;;;;;;;;;;8383196;28;20083;-87
2022/08/23 18:11:42;;;;;;;19.10;12.07;;;;;;;;;;8369572;28;20095;-88
2022/08/23 18:15:45;;;;;;;21.08;12.82;;;;;;;;;;8390191;28;20052;-87
2022/08/23 18:19:47;;;;;;;19.70;13.05;;;;;;;;;;8385209;28;20041;-88
2022/08/23 18:23:50;;;;;;;26.35;13.15;;;;;;;;;;8384924;28;20048;-87
2022/08/23 18:28:07;;;;;;;25.05;13.60;;;;;;;;;;8381997;28;20049;-89
2022/08/23 18:32:09;;;;;;;19.85;12.65;;;;;;;;;;8389332;28;20412;-89
2022/08/23 18:36:13;;;;;;;18.73;12.70;;;;;;;;;;8387156;28;20060;-89
2022/08/23 18:40:17;;;;;;;23.75;13.50;;;;;;;;;;8388627;28;20081;-88
2022/08/23 18:44:21;;;;;;;21.48;13.77;;;;;;;;;;8386042;28;20098;-89
2022/08/23 18:48:24;;;;;;;21.23;12.68;;;;;;;;;;8372929;28;20098;-90
2022/08/23 18:52:28;;;;;;;20.88;12.18;;;;;;;;;;8382893;28;20576;-89
2022/08/23 18:56:31;;;;;;;19.60;11.10;;;;;;;;;;8391357;28;20037;-88
2022/08/23 19:00:36;;;;;;;18.02;12.23;;;;;;;;;;8385029;28;20046;-87
2022/08/23 19:04:40;;;;;;;20.90;13.15;;;;;;;;;;8393462;28;20156;-88
2022/08/23 19:08:43;;;;;;;19.52;11.68;;;;;;;;;;8393526;28;20048;-87
2022/08/23 19:12:46;;;;;;;19.58;12.48;;;;;;;;;;8390885;28;20110;-88
2022/08/23 19:16:50;;;;;;;18.80;13.10;;;;;;;;;;8386749;28;20053;-87
2022/08/23 19:20:54;;;;;;;17.52;14.07;;;;;;;;;;8376913;28;20056;-88
2022/08/23 19:24:56;;;;;;;22.17;13.68;;;;;;;;;;8384519;28;20476;-87
2022/08/23 19:29:00;;;;;;;21.75;14.27;;;;;;;;;;8378061;28;20041;-87
2022/08/23 19:33:04;;;;;;;25.85;12.98;;;;;;;;;;8371336;28;20048;-88
2022/08/23 19:37:07;;;;;;;20.05;11.73;;;;;;;;;;8390123;28;20057;-87
2022/08/23 19:41:09;;;;;;;19.40;12.50;;;;;;;;;;8376902;28;20049;-89
2022/08/23 19:45:13;;;;;;;19.13;12.75;;;;;;;;;;8377504;28;20044;-88
2022/08/23 19:49:17;;;;;;;15.80;11.30;;;;;;;;;;8371610;28;20049;-87
2022/08/23 19:53:20;;;;;;;18.15;11.32;;;;;;;;;;8369535;28;20090;-87
2022/08/23 19:57:22;;;;;;;16.15;11.68;;;;;;;;;;8379626;28;20468;-88
2022/08/23 20:01:26;;;;;;;18.85;12.10;;;;;;;;;;8377435;28;20136;-87
2022/08/23 20:05:30;;;;;;;18.13;10.85;;;;;;;;;;8378924;28;20076;-87
2022/08/23 20:09:33;;;;;;;17.33;10.40;;;;;;;;;;8371866;28;20045;-89
2022/08/23 20:13:36;;;;;;;15.80;10.27;;;;;;;;;;8370294;28;20567;-88
2022/08/23 20:17:39;;;;;;;15.48;9.63;;;;;;;;;;8379014;28;20048;-88
2022/08/23 20:21:44;;;;;;;20.80;9.95;;;;;;;;;;8385124;28;20052;-87
2022/08/23 20:25:47;;;;;;;22.95;10.10;;;;;;;;;;8378518;28;20040;-88
2022/08/23 20:29:49;;;;;;;15.93;9.68;;;;;;;;;;8373290;28;20102;-88
2022/08/23 20:33:54;;;;;;;18.50;9.98;;;;;;;;;;8370463;28;20520;-87
2022/08/23 20:37:58;;;;;;;18.52;10.10;;;;;;;;;;8383505;28;20423;-89
2022/08/23 20:42:01;;;;;;;18.00;10.77;;;;;;;;;;8372007;28;20056;-87
2022/08/23 20:46:03;;;;;;;16.13;11.18;;;;;;;;;;8380329;28;20053;-87
2022/08/23 20:50:08;;;;;;;17.73;10.02;;;;;;;;;;8369110;28;20551;-88
2022/08/23 20:54:11;;;;;;;16.23;9.70;;;;;;;;;;8378886;28;20142;-87
2022/08/23 20:58:14;;;;;;;15.88;9.95;;;;;;;;;;8374088;28;20044;-87
2022/08/23 21:02:16;;;;;;;19.40;10.90;;;;;;;;;;8374103;28;20063;-87
2022/08/23 21:06:22;;;;;;;19.33;10.82;;;;;;;;;;8368774;28;20052;-88
2022/08/23 21:10:26;;;;;;;20.48;10.55;;;;;;;;;;8366351;28;20092;-87
2022/08/23 21:14:29;;;;;;;20.17;10.95;;;;;;;;;;8376755;28;20040;-87
2022/08/23 21:18:31;;;;;;;20.20;10.32;;;;;;;;;;8374645;28;20045;-87
2022/08/23 21:22:34;;;;;;;20.17;10.48;;;;;;;;;;8375542;28;20421;-88
2022/08/23 21:26:38;;;;;;;22.02;11.30;;;;;;;;;;8369251;28;20116;-87
2022/08/23 21:30:41;;;;;;;15.57;10.70;;;;;;;;;;8367554;28;20045;-87
2022/08/23 21:34:43;;;;;;;18.38;10.93;;;;;;;;;;8370455;28;20068;-88
2022/08/23 21:38:46;;;;;;;24.25;11.65;;;;;;;;;;8377135;28;20057;-87
2022/08/23 21:42:50;;;;;;;16.05;10.85;;;;;;;;;;8370533;28;20045;-87
2022/08/23 21:46:53;;;;;;;23.42;14.50;;;;;;;;;;8380833;28;20057;-88
2022/08/23 21:50:55;;;;;;;18.65;10.88;;;;;;;;;;8373439;28;20075;-88
2022/08/23 21:54:58;;;;;;;18.17;10.70;;;;;;;;;;8372032;28;20526;-87
2022/08/23 21:59:05;;;;;;;19.45;11.65;;;;;;;;;;8369026;28;20045;-88
2022/08/23 22:03:08;;;;;;;15.52;10.07;;;;;;;;;;8365558;28;20049;-88
2022/08/23 22:07:10;;;;;;;21.38;12.63;;;;;;;;;;8373764;28;20040;-88
2022/08/23 22:11:14;;;;;;;17.80;11.30;;;;;;;;;;8375774;28;20477;-88
2022/08/23 22:15:18;;;;;;;17.23;10.73;;;;;;;;;;8372163;28;20049;-88
2022/08/23 22:19:21;;;;;;;17.58;10.93;;;;;;;;;;8370993;28;20052;-87
2022/08/23 22:23:24;;;;;;;18.30;9.45;;;;;;;;;;8366713;28;20473;-88
2022/08/23 22:27:27;;;;;;;18.00;11.45;;;;;;;;;;8366587;28;20055;-88
2022/08/23 22:31:31;;;;;;;19.42;10.68;;;;;;;;;;8385652;28;20040;-87
2022/08/23 22:35:34;;;;;;;22.80;12.30;;;;;;;;;;8384777;28;20051;-88
2022/08/23 22:39:39;;;;;;;15.68;11.30;;;;;;;;;;8373655;28;20122;-88
2022/08/23 22:43:42;;;;;;;21.67;12.40;;;;;;;;;;8376863;28;20428;-88
2022/08/23 22:47:46;;;;;;;17.25;11.27;;;;;;;;;;8379253;28;20056;-88
2022/08/23 22:51:48;;;;;;;20.08;11.77;;;;;;;;;;8377113;28;20105;-88
2022/08/23 22:55:51;;;;;;;16.75;11.32;;;;;;;;;;8371747;28;20052;-90
2022/08/23 22:59:57;;;;;;;18.25;12.05;;;;;;;;;;8369536;28;20052;-90
2022/08/23 23:04:02;;;;;;;22.08;12.85;;;;;;;;;;8387395;28;20529;-89
2022/08/23 23:12:24;;;;;;;28.10;13.48;;;;;;;;;;8382404;28;20045;-89
2022/08/23 23:16:29;;;;;;;23.40;13.30;;;;;;;;;;8387433;28;20052;-89
2022/08/23 23:20:39;;;;;;;20.38;12.68;;;;;;;;;;8374456;28;20044;-89
2022/08/23 23:24:42;;;;;;;19.95;13.25;;;;;;;;;;8381148;28;20124;-91
2022/08/23 23:28:44;;;;;;;35.42;15.50;;;;;;;;;;8378731;28;20045;-90
2022/08/23 23:32:48;;;;;;;30.42;14.88;;;;;;;;;;8379468;28;20053;-91
2022/08/23 23:36:54;;;;;;;28.95;15.30;;;;;;;;;;8389191;28;20063;-90
2022/08/23 23:40:57;;;;;;;21.63;12.93;;;;;;;;;;8376301;28;20483;-89
2022/08/23 23:44:59;;;;;;;20.33;14.85;;;;;;;;;;8376488;28;20567;-89
2022/08/23 23:49:02;;;;;;;23.90;13.98;;;;;;;;;;8375353;28;20053;-91
2022/08/23 23:53:06;;;;;;;24.60;13.93;;;;;;;;;;8368575;28;20045;-89
2022/08/23 23:57:09;;;;;;;20.02;12.95;;;;;;;;;;8386259;28;20127;-89
